createdAt,value
2018-10-19T00:01:48.601Z,14.20
2018-10-19T00:04:16.991Z,14.20
2018-10-19T00:06:45.244Z,14.10
2018-10-19T00:09:13.509Z,14.10
2018-10-19T00:11:41.812Z,14.10
2018-10-19T00:14:10.092Z,13.90
2018-10-19T00:16:38.581Z,14.00
2018-10-19T00:19:07.259Z,14.00
2018-10-19T00:21:36.016Z,13.90
2018-10-19T00:24:04.831Z,13.70
2018-10-19T00:29:01.459Z,13.90
2018-10-19T00:31:29.948Z,13.70
2018-10-19T00:38:54.913Z,13.60
2018-10-19T00:41:23.812Z,13.50
2018-10-19T00:43:52.158Z,13.40
2018-10-19T00:46:20.724Z,13.40
2018-10-19T00:51:17.763Z,13.30
2018-10-19T00:53:46.949Z,13.40
2018-10-19T00:56:15.392Z,13.30
2018-10-19T00:58:44.154Z,13.20
2018-10-19T01:01:12.792Z,13.30
2018-10-19T01:03:41.140Z,13.30
2018-10-19T01:06:09.463Z,13.50
2018-10-19T01:08:37.999Z,13.50
2018-10-19T01:11:06.668Z,13.40
2018-10-19T01:13:35.273Z,13.40
2018-10-19T01:16:04.264Z,13.40
2018-10-19T01:18:32.953Z,13.40
2018-10-19T01:23:30.421Z,13.30
2018-10-19T01:25:59.001Z,13.10
2018-10-19T01:28:27.384Z,13.10
2018-10-19T01:30:56.093Z,13.10
2018-10-19T01:33:25.144Z,13.10
2018-10-19T01:35:53.508Z,13.10
2018-10-19T01:38:21.710Z,13.00
2018-10-19T01:45:51.855Z,13.00
2018-10-19T01:48:20.628Z,12.90
2018-10-19T01:50:49.060Z,12.90
2018-10-19T01:53:17.875Z,12.90
2018-10-19T01:55:46.432Z,12.80
2018-10-19T01:58:15.378Z,12.80
2018-10-19T02:00:43.963Z,12.90
2018-10-19T02:03:13.339Z,12.90
2018-10-19T02:05:41.657Z,12.90
2018-10-19T02:10:39.219Z,12.80
2018-10-19T02:13:08.813Z,12.80
2018-10-19T02:15:37.564Z,12.70
2018-10-19T02:18:06.080Z,12.60
2018-10-19T02:20:34.702Z,12.50
2018-10-19T02:23:03.325Z,12.30
2018-10-19T02:25:31.664Z,12.20
2018-10-19T02:27:59.830Z,12.40
2018-10-19T02:30:28.152Z,12.40
2018-10-19T02:32:56.606Z,12.40
2018-10-19T02:37:53.244Z,12.40
2018-10-19T02:40:21.422Z,12.60
2018-10-19T02:42:49.760Z,12.70
2018-10-19T02:45:18.254Z,12.50
2018-10-19T02:47:46.555Z,12.50
2018-10-19T02:50:15.872Z,12.60
2018-10-19T02:55:12.681Z,12.60
2018-10-19T03:00:10.834Z,12.50
2018-10-19T03:02:39.605Z,12.40
2018-10-19T03:07:37.336Z,12.60
2018-10-19T03:10:05.979Z,12.50
2018-10-19T03:12:34.632Z,12.40
2018-10-19T03:15:03.185Z,12.40
2018-10-19T03:17:31.708Z,12.40
2018-10-19T03:20:00.336Z,12.40
2018-10-19T03:22:28.767Z,12.20
2018-10-19T03:27:25.555Z,12.30
2018-10-19T03:29:54.213Z,12.30
2018-10-19T03:32:22.870Z,12.20
2018-10-19T03:34:52.516Z,12.20
2018-10-19T03:42:17.258Z,12.00
2018-10-19T03:44:45.651Z,12.00
2018-10-19T03:47:14.487Z,12.00
2018-10-19T03:49:43.388Z,12.00
2018-10-19T03:57:08.542Z,11.90
2018-10-19T03:59:37.200Z,11.90
2018-10-19T04:02:05.626Z,11.80
2018-10-19T04:07:03.876Z,11.80
2018-10-19T04:09:32.540Z,11.70
2018-10-19T04:12:00.940Z,11.80
2018-10-19T04:19:26.996Z,11.70
2018-10-19T04:21:55.754Z,11.70
2018-10-19T04:24:24.378Z,11.60
2018-10-19T04:26:52.862Z,11.50
2018-10-19T04:29:21.866Z,11.50
2018-10-19T04:31:50.728Z,11.50
2018-10-19T04:34:19.088Z,11.60
2018-10-19T04:36:47.500Z,11.60
2018-10-19T04:39:16.165Z,11.40
2018-10-19T04:41:44.710Z,11.40
2018-10-19T04:46:41.388Z,11.50
2018-10-19T04:49:09.891Z,11.50
2018-10-19T04:54:06.761Z,11.60
2018-10-19T04:56:36.297Z,11.60
2018-10-19T05:04:01.494Z,11.90
2018-10-19T05:06:30.347Z,11.90
2018-10-19T05:08:58.869Z,12.00
2018-10-19T05:11:27.561Z,12.10
2018-10-19T05:13:56.307Z,12.20
2018-10-19T05:18:52.872Z,12.00
2018-10-19T05:21:21.444Z,12.00
2018-10-19T05:23:49.632Z,12.20
2018-10-19T05:28:46.476Z,12.20
2018-10-19T05:33:43.261Z,12.40
2018-10-19T05:36:11.608Z,12.60
2018-10-19T05:38:39.924Z,12.80
2018-10-19T05:41:08.472Z,13.00
2018-10-19T05:43:37.113Z,13.20
2018-10-19T05:46:05.856Z,13.60
2018-10-19T05:51:02.564Z,14.40
2018-10-19T05:53:31.181Z,14.70
2018-10-19T05:55:59.348Z,15.10
2018-10-19T05:58:28.087Z,15.50
2018-10-19T06:03:24.742Z,16.20
2018-10-19T06:08:21.201Z,17.20
2018-10-19T06:13:18.851Z,18.10
2018-10-19T06:15:48.464Z,18.50
2018-10-19T06:18:16.853Z,18.80
2018-10-19T06:20:45.544Z,19.00
2018-10-19T06:23:14.114Z,19.40
2018-10-19T06:28:10.972Z,20.10
2018-10-19T06:30:39.676Z,20.60
2018-10-19T06:33:08.263Z,20.90
2018-10-19T06:35:37.876Z,21.20
2018-10-19T06:38:06.488Z,21.40
2018-10-19T06:40:34.907Z,21.70
2018-10-19T06:43:03.300Z,21.70
2018-10-19T06:45:31.697Z,21.90
2018-10-19T06:48:00.256Z,22.30
2018-10-19T06:50:28.489Z,22.50
2018-10-19T06:52:57.730Z,22.80
2018-10-19T06:55:25.803Z,23.20
2018-10-19T06:57:54.180Z,23.70
2018-10-19T07:00:22.656Z,23.90
2018-10-19T07:02:51.319Z,24.30
2018-10-19T07:05:19.616Z,24.70
2018-10-19T07:07:48.949Z,24.50
2018-10-19T07:10:17.308Z,24.50
2018-10-19T07:12:46.025Z,24.90
2018-10-19T07:15:14.531Z,25.40
2018-10-19T07:17:43.147Z,25.80
2018-10-19T07:20:11.312Z,25.80
2018-10-19T07:22:40.093Z,26.30
2018-10-19T07:25:08.493Z,26.60
2018-10-19T07:30:05.688Z,27.40
2018-10-19T07:32:33.935Z,27.90
2018-10-19T07:35:02.343Z,28.30
2018-10-19T07:37:30.683Z,28.50
2018-10-19T07:39:58.823Z,28.90
2018-10-19T07:42:27.009Z,28.50
2018-10-19T07:44:54.828Z,28.60
2018-10-19T07:47:23.134Z,28.60
2018-10-19T07:52:19.161Z,29.50
2018-10-19T07:54:47.188Z,29.70
2018-10-19T07:57:15.272Z,30.10
2018-10-19T07:59:43.356Z,30.10
2018-10-19T08:02:11.899Z,30.40
2018-10-19T08:04:40.166Z,30.80
2018-10-19T08:07:08.568Z,31.20
2018-10-19T08:12:05.240Z,31.40
2018-10-19T08:14:33.705Z,31.60
2018-10-19T08:17:02.381Z,31.90
2018-10-19T08:19:30.708Z,32.10
2018-10-19T08:21:58.728Z,32.40
2018-10-19T08:24:26.811Z,32.40
2018-10-19T08:26:54.876Z,32.20
2018-10-19T08:29:22.921Z,31.80
2018-10-19T08:31:51.034Z,31.70
2018-10-19T08:34:19.084Z,31.20
2018-10-19T08:36:47.171Z,30.60
2018-10-19T08:39:15.234Z,31.00
2018-10-19T08:41:43.506Z,31.40
2018-10-19T08:44:11.397Z,32.00
2018-10-19T08:46:40.644Z,32.40
2018-10-19T08:49:10.359Z,32.70
2018-10-19T08:54:07.480Z,33.10
2018-10-19T08:56:35.728Z,33.40
2018-10-19T08:59:03.900Z,33.20
2018-10-19T09:01:32.188Z,33.50
2018-10-19T09:06:28.420Z,34.00
2018-10-19T09:08:56.760Z,34.30
2018-10-19T09:11:25.013Z,34.40
2018-10-19T09:13:53.392Z,34.70
2018-10-19T09:16:21.705Z,34.50
2018-10-19T09:18:50.079Z,34.70
2018-10-19T09:21:18.572Z,35.20
2018-10-19T09:23:46.751Z,35.40
2018-10-19T09:26:14.745Z,35.60
2018-10-19T09:28:42.822Z,35.80
2018-10-19T09:33:38.740Z,36.20
2018-10-19T09:38:35.704Z,35.70
2018-10-19T09:43:31.856Z,35.60
2018-10-19T09:45:59.924Z,36.10
2018-10-19T09:48:28.079Z,36.50
2018-10-19T09:50:56.100Z,36.40
2018-10-19T09:53:24.128Z,36.50
2018-10-19T09:58:20.279Z,36.40
2018-10-19T10:00:53.995Z,36.50
2018-10-19T10:03:21.960Z,36.30
2018-10-19T10:05:50.015Z,36.70
2018-10-19T10:10:45.980Z,36.60
2018-10-19T10:13:14.845Z,36.10
2018-10-19T10:15:43.045Z,36.40
2018-10-19T10:18:10.987Z,36.30
2018-10-19T10:20:39.084Z,35.90
2018-10-19T10:23:07.148Z,35.70
2018-10-19T10:25:35.224Z,35.50
2018-10-19T10:28:03.305Z,35.90
2018-10-19T10:30:31.412Z,36.30
2018-10-19T10:32:59.415Z,36.70
2018-10-19T10:35:27.483Z,36.30
2018-10-19T10:37:55.576Z,36.40
2018-10-19T10:40:23.634Z,35.80
2018-10-19T10:42:51.696Z,34.70
2018-10-19T10:45:19.759Z,33.40
2018-10-19T10:47:47.912Z,32.80
2018-10-19T10:52:44.900Z,32.10
2018-10-19T10:55:12.978Z,31.60
2018-10-19T10:57:41.054Z,31.50
2018-10-19T11:00:09.452Z,31.60
2018-10-19T11:02:37.657Z,31.40
2018-10-19T11:05:06.386Z,31.50
2018-10-19T11:07:34.778Z,31.50
2018-10-19T11:10:02.763Z,31.70
2018-10-19T11:12:31.080Z,31.70
2018-10-19T11:15:00.351Z,32.10
2018-10-19T11:19:56.537Z,32.30
2018-10-19T11:22:24.536Z,31.50
2018-10-19T11:24:54.970Z,31.20
2018-10-19T11:27:23.124Z,31.30
2018-10-19T11:29:51.342Z,31.00
2018-10-19T11:34:47.948Z,30.90
2018-10-19T11:37:16.248Z,30.80
2018-10-19T11:39:55.015Z,31.20
2018-10-19T11:42:23.292Z,31.00
2018-10-19T11:44:51.237Z,30.60
2018-10-19T11:49:47.500Z,30.10
2018-10-19T11:52:15.532Z,29.90
2018-10-19T11:54:43.659Z,29.60
2018-10-19T11:57:11.662Z,29.70
2018-10-19T11:59:39.741Z,29.70
2018-10-19T12:02:08.596Z,29.50
2018-10-19T12:04:36.788Z,29.80
2018-10-19T12:09:33.240Z,29.60
2018-10-19T12:12:01.345Z,29.30
2018-10-19T12:14:29.404Z,28.90
2018-10-19T12:16:58.378Z,28.40
2018-10-19T12:19:26.635Z,28.00
2018-10-19T12:21:54.840Z,27.70
2018-10-19T12:24:22.922Z,27.50
2018-10-19T12:26:51.276Z,27.30
2018-10-19T12:29:19.320Z,27.00
2018-10-19T12:31:47.437Z,27.10
2018-10-19T12:34:15.499Z,27.30
2018-10-19T12:36:43.624Z,27.60
2018-10-19T12:39:11.662Z,27.40
2018-10-19T12:41:39.696Z,27.10
2018-10-19T12:44:07.788Z,27.10
2018-10-19T12:46:48.351Z,27.00
2018-10-19T12:49:19.013Z,27.30
2018-10-19T12:51:47.007Z,27.80
2018-10-19T12:56:43.207Z,27.80
2018-10-19T12:59:11.336Z,27.60
2018-10-19T13:01:39.416Z,27.80
2018-10-19T13:04:07.387Z,28.10
2018-10-19T13:06:35.504Z,28.10
2018-10-19T13:09:06.134Z,28.30
2018-10-19T13:11:34.140Z,28.50
2018-10-19T13:14:02.159Z,28.30
2018-10-19T13:16:30.106Z,28.40
2018-10-19T13:18:58.113Z,28.30
2018-10-19T13:23:54.190Z,28.40
2018-10-19T13:26:22.233Z,28.20
2018-10-19T13:28:50.251Z,28.00
2018-10-19T13:31:18.361Z,27.90
2018-10-19T13:33:46.391Z,27.80
2018-10-19T13:36:14.928Z,28.00
2018-10-19T13:38:43.255Z,28.00
2018-10-19T13:41:11.932Z,27.90
2018-10-19T13:43:40.504Z,28.10
2018-10-19T13:46:08.639Z,28.00
2018-10-19T13:48:36.732Z,28.00
2018-10-19T13:51:04.842Z,28.00
2018-10-19T13:53:32.840Z,28.00
2018-10-19T13:56:00.896Z,27.80
2018-10-19T13:58:29.017Z,27.80
2018-10-19T14:00:57.095Z,27.70
2018-10-19T14:03:25.052Z,27.40
2018-10-19T14:08:21.239Z,27.00
2018-10-19T14:10:49.317Z,26.90
2018-10-19T14:13:17.451Z,26.80
2018-10-19T14:15:45.520Z,26.70
2018-10-19T14:20:41.616Z,26.80
2018-10-19T14:23:09.712Z,26.70
2018-10-19T14:25:37.808Z,26.70
2018-10-19T14:28:05.906Z,26.70
2018-10-19T14:30:34.200Z,26.70
2018-10-19T14:33:03.264Z,26.80
2018-10-19T14:35:31.241Z,26.60
2018-10-19T14:37:59.428Z,26.60
2018-10-19T14:40:27.709Z,26.60
2018-10-19T14:42:56.276Z,26.10
2018-10-19T14:45:24.468Z,25.90
2018-10-19T14:47:52.431Z,25.70
2018-10-19T14:50:20.664Z,25.60
2018-10-19T14:52:48.665Z,25.30
2018-10-19T14:57:46.052Z,25.20
2018-10-19T15:02:43.235Z,24.80
2018-10-19T15:05:12.855Z,24.80
2018-10-19T15:07:41.128Z,24.60
2018-10-19T15:10:11.745Z,24.30
2018-10-19T15:12:40.059Z,23.80
2018-10-19T15:15:09.429Z,23.40
2018-10-19T15:17:37.671Z,23.30
2018-10-19T15:20:05.944Z,23.10
2018-10-19T15:22:34.812Z,23.20
2018-10-19T15:25:02.825Z,23.00
2018-10-19T15:27:30.947Z,23.00
2018-10-19T15:29:59.020Z,23.00
2018-10-19T15:32:27.027Z,22.80
2018-10-19T15:34:55.896Z,22.60
2018-10-19T15:37:24.554Z,22.50
2018-10-19T15:42:20.542Z,22.20
2018-10-19T15:44:48.620Z,22.00
2018-10-19T15:47:16.712Z,21.80
2018-10-19T15:49:44.762Z,21.30
2018-10-19T15:52:12.888Z,21.10
2018-10-19T15:54:40.891Z,20.90
2018-10-19T15:57:09.018Z,20.80
2018-10-19T16:02:05.208Z,20.50
2018-10-19T16:04:33.559Z,20.40
2018-10-19T16:09:30.340Z,20.20
2018-10-19T16:11:58.650Z,20.00
2018-10-19T16:19:22.934Z,19.70
2018-10-19T16:21:52.439Z,19.80
2018-10-19T16:24:20.824Z,19.80
2018-10-19T16:26:51.343Z,19.90
2018-10-19T16:29:19.908Z,19.60
2018-10-19T16:31:48.504Z,19.40
2018-10-19T16:34:16.764Z,19.30
2018-10-19T16:36:45.184Z,19.10
2018-10-19T16:41:42.088Z,19.20
2018-10-19T16:44:10.655Z,19.20
2018-10-19T16:46:39.532Z,19.00
2018-10-19T16:49:07.993Z,19.00
2018-10-19T16:51:36.051Z,19.00
2018-10-19T16:54:04.253Z,18.90
2018-10-19T16:56:32.499Z,18.80
2018-10-19T17:01:29.132Z,18.60
2018-10-19T17:03:57.368Z,18.70
2018-10-19T17:06:25.473Z,18.80
2018-10-19T17:08:53.898Z,18.80
2018-10-19T17:11:22.167Z,18.80
2018-10-19T17:13:51.124Z,18.90
2018-10-19T17:16:19.285Z,19.00
2018-10-19T17:18:47.396Z,18.90
2018-10-19T17:21:15.818Z,19.00
2018-10-19T17:23:44.093Z,19.00
2018-10-19T17:26:12.156Z,18.90
2018-10-19T17:33:36.158Z,18.90
2018-10-19T17:36:05.435Z,18.90
2018-10-19T17:38:33.758Z,19.10
2018-10-19T17:41:01.814Z,19.10
2018-10-19T17:43:29.828Z,19.00
2018-10-19T17:48:26.060Z,18.80
2018-10-19T17:50:54.122Z,18.80
2018-10-19T17:53:22.138Z,18.80
2018-10-19T18:00:46.150Z,19.00
2018-10-19T18:03:14.483Z,19.00
2018-10-19T18:05:42.640Z,19.00
2018-10-19T18:08:10.876Z,18.90
2018-10-19T18:10:38.948Z,18.80
2018-10-19T18:13:07.101Z,18.70
2018-10-19T18:15:36.363Z,18.70
2018-10-19T18:20:32.769Z,18.60
2018-10-19T18:23:01.014Z,18.60
2018-10-19T18:25:28.986Z,18.50
2018-10-19T18:27:57.704Z,18.60
2018-10-19T18:32:54.375Z,19.00
2018-10-19T18:37:51.376Z,18.70
2018-10-19T18:40:19.992Z,18.70
2018-10-19T18:42:48.649Z,18.60
2018-10-19T18:45:17.259Z,18.70
2018-10-19T18:47:46.039Z,18.80
2018-10-19T18:50:14.782Z,18.80
2018-10-19T18:52:43.215Z,18.70
2018-10-19T18:55:11.691Z,18.70
2018-10-19T18:57:40.071Z,18.80
2018-10-19T19:00:10.211Z,18.70
2018-10-19T19:02:38.712Z,18.50
2018-10-19T19:05:07.304Z,18.10
2018-10-19T19:07:35.811Z,17.80
2018-10-19T19:12:37.984Z,17.50
2018-10-19T19:15:06.780Z,17.50
2018-10-19T19:17:34.987Z,17.40
2018-10-19T19:22:36.833Z,17.40
2018-10-19T19:25:10.795Z,17.40
2018-10-19T19:27:38.957Z,17.50
2018-10-19T19:32:35.477Z,17.60
2018-10-19T19:35:03.490Z,17.60
2018-10-19T19:37:31.576Z,17.60
2018-10-19T19:39:59.627Z,17.50
2018-10-19T19:45:01.302Z,17.60
2018-10-19T19:50:04.466Z,17.60
2018-10-19T19:52:32.859Z,17.60
2018-10-19T19:55:01.253Z,17.50
2018-10-19T19:57:29.311Z,17.60
2018-10-19T19:59:57.460Z,17.60
2018-10-19T20:02:25.460Z,17.50
2018-10-19T20:04:53.583Z,17.50
2018-10-19T20:07:21.616Z,17.60
2018-10-19T20:09:49.680Z,17.70
2018-10-19T20:12:17.911Z,17.80
2018-10-19T20:14:46.124Z,18.00
2018-10-19T20:17:14.269Z,17.90
2018-10-19T20:19:42.296Z,17.90
2018-10-19T20:24:41.860Z,17.90
2018-10-19T20:27:09.852Z,17.80
2018-10-19T20:29:37.923Z,17.80
2018-10-19T20:32:06.146Z,17.90
2018-10-19T20:34:34.477Z,17.80
2018-10-19T20:37:02.519Z,17.70
2018-10-19T20:39:30.515Z,17.60
2018-10-19T20:41:58.996Z,17.60
2018-10-19T20:44:29.013Z,17.40
2018-10-19T20:49:25.028Z,17.20
2018-10-19T20:51:53.031Z,17.20
2018-10-19T20:54:21.107Z,17.20
2018-10-19T20:56:49.196Z,17.10
2018-10-19T20:59:17.243Z,17.10
2018-10-19T21:01:45.364Z,17.10
2018-10-19T21:06:41.461Z,17.00
2018-10-19T21:09:10.680Z,16.90
2018-10-19T21:11:39.303Z,16.70
2018-10-19T21:14:07.855Z,16.60
2018-10-19T21:19:04.261Z,16.60
2018-10-19T21:21:32.344Z,16.60
2018-10-19T21:24:00.436Z,16.60
2018-10-19T21:26:28.492Z,16.80
2018-10-19T21:28:56.676Z,16.60
2018-10-19T21:31:24.616Z,16.50
2018-10-19T21:33:52.719Z,16.30
2018-10-19T21:36:20.846Z,16.10
2018-10-19T21:43:44.976Z,15.70
2018-10-19T21:46:13.568Z,15.60
2018-10-19T21:48:42.056Z,15.40
2018-10-19T21:53:38.955Z,15.20
2018-10-19T21:56:08.053Z,15.30
2018-10-19T21:58:36.884Z,15.40
2018-10-19T22:01:05.230Z,15.40
2018-10-19T22:03:33.652Z,15.50
2018-10-19T22:06:02.382Z,15.60
2018-10-19T22:08:31.154Z,15.70
2018-10-19T22:10:59.784Z,15.70
2018-10-19T22:13:28.278Z,15.60
2018-10-19T22:18:25.208Z,15.70
2018-10-19T22:20:53.725Z,15.90
2018-10-19T22:25:50.519Z,16.00
2018-10-19T22:28:18.996Z,15.80
2018-10-19T22:30:47.628Z,15.40
2018-10-19T22:35:45.024Z,15.10
2018-10-19T22:38:13.627Z,15.00
2018-10-19T22:40:42.087Z,15.00
2018-10-19T22:45:40.992Z,15.00
2018-10-19T22:48:09.556Z,15.00
2018-10-19T22:53:10.083Z,14.90
2018-10-19T22:55:38.568Z,14.80
2018-10-19T22:58:08.450Z,14.90
2018-10-19T23:00:37.025Z,14.90
2018-10-19T23:03:06.732Z,14.90
2018-10-19T23:05:35.566Z,14.90
2018-10-19T23:10:32.688Z,14.80
2018-10-19T23:13:01.848Z,14.70
2018-10-19T23:15:30.356Z,14.80
2018-10-19T23:17:58.703Z,14.70
2018-10-19T23:20:27.169Z,14.70
2018-10-19T23:22:55.459Z,14.60
2018-10-19T23:25:28.419Z,14.50
2018-10-19T23:27:56.673Z,14.50
2018-10-19T23:30:25.342Z,14.60
2018-10-19T23:35:21.958Z,14.40
2018-10-19T23:37:50.458Z,14.40
2018-10-19T23:40:19.192Z,14.40
2018-10-19T23:45:18.112Z,14.40
2018-10-19T23:47:46.636Z,14.40
2018-10-19T23:50:15.132Z,14.30
2018-10-19T23:52:43.715Z,14.20
2018-10-19T23:55:12.773Z,14.20
2018-10-19T23:57:41.243Z,14.30
